Latest Weather Observations for Maria Island

IDT60801

Issued at 9:02 am EDT Thursday 19 January 2017 (issued every 30 minutes, with the page automatically refreshed every 10 minutes)

About weather observations | Map of weather stations | Latest weather observations for TAS | Other Formats
Station Details ID: 092124 Name: MARIA ISLAND (POINT LESUEUR) Lat: -42.66 Lon: 148.02 Height: 28.0 m
Data from the previous 72 hours. | See also: Recent months at Maria Island
Date/Time
EDT
Temp
°C
App
Temp
°C
Dew
Point
°C
Rel
Hum
%
Delta-T
°C
Wind Press
QNH
hPa
Press
MSL
hPa
Rain since
9am
mm
Dir  Spd
km/h
Gust
km/h
Spd
kts
Gust
kts
19/09:00am 14.1 - - - - SSW 20 24 11 13 - - -
19/08:30am 13.5 - - - - SW 19 24 10 13 1017.7 1017.6 0.0
19/08:00am 13.0 - - - - SW 20 26 11 14 1017.4 1017.3 0.0
19/07:30am 12.8 - - - - SSW 24 32 13 17 1017.2 1017.1 0.0
19/07:00am 12.2 - - - - SW 20 24 11 13 1016.9 1016.8 0.0
19/06:30am 11.9 - - - - SW 22 32 12 17 1016.6 1016.5 0.0
19/06:00am 11.5 - - - - WSW 15 24 8 13 1016.6 1016.5 0.0
19/05:30am 11.7 - - - - WSW 17 20 9 11 1016.2 1016.1 0.0
19/05:00am 11.8 - - - - WSW 20 30 11 16 1015.8 1015.7 0.0
19/04:30am 12.0 - - - - WSW 20 28 11 15 1015.7 1015.6 0.0
19/04:00am 12.2 - - - - WSW 22 32 12 17 1015.4 1015.3 0.0
19/03:30am 12.6 - - - - WSW 24 32 13 17 1015.9 1015.8 0.0
19/03:00am 12.6 - - - - SW 28 37 15 20 1016.0 1015.9 0.0
19/02:30am 12.9 - - - - WSW 26 32 14 17 1016.2 1016.1 0.0
19/02:00am 12.9 - - - - WSW 26 32 14 17 1016.3 1016.2 0.0
19/01:30am 13.1 - - - - SW 32 43 17 23 1016.2 1016.1 0.0
19/01:00am 13.1 - - - - WSW 30 35 16 19 1016.1 1016.0 0.0
19/12:30am 13.2 - - - - SW 28 39 15 21 1016.1 1016.0 0.0
19/12:00am 13.1 - - - - SW 20 26 11 14 1016.1 1016.0 0.0
 
Date/Time
EDT
Temp
°C
App
Temp
°C
Dew
Point
°C
Rel
Hum
%
Delta-T
°C
Wind Press
QNH
hPa
Press
MSL
hPa
Rain since
9am
mm
Dir  Spd
km/h
Gust
km/h
Spd
kts
Gust
kts
18/11:30pm 13.1 - - - - SW 26 32 14 17 1016.1 1016.0 0.0
18/11:00pm 13.4 - - - - SSW 33 39 18 21 1016.0 1015.9 0.0
18/10:30pm 13.5 - - - - SSW 32 41 17 22 1016.0 1015.9 0.0
18/10:00pm 13.6 - - - - SSW 33 39 18 21 1015.5 1015.4 0.0
18/09:30pm 13.7 - - - - SW 30 35 16 19 1015.5 1015.4 0.0
18/09:00pm 14.0 - - - - SSW 46 56 25 30 1014.7 1014.6 0.0
18/08:30pm 14.2 - - - - SSW 39 48 21 26 1014.5 1014.4 0.0
18/08:00pm 14.4 - - - - SSW 48 57 26 31 1013.7 1013.6 0.0
18/07:30pm 15.2 - - - - SSW 50 59 27 32 1013.1 1013.0 0.0
18/07:00pm 15.4 - - - - SSW 48 56 26 30 1012.6 1012.5 0.0
18/06:30pm 15.8 - - - - SSW 43 50 23 27 1012.2 1012.1 0.0
18/06:00pm 16.4 - - - - SSW 43 50 23 27 1011.7 1011.6 0.0
18/05:30pm 16.6 - - - - SSW 46 54 25 29 1011.1 1011.0 0.0
18/05:00pm 16.7 - - - - SSW 43 54 23 29 1010.9 1010.8 0.0
18/04:30pm 16.5 - - - - SSW 43 54 23 29 1010.7 1010.6 0.0
18/04:00pm 16.9 - - - - SSW 43 54 23 29 1010.5 1010.4 0.0
18/03:30pm 17.6 - - - - SW 46 59 25 32 1009.7 1009.6 0.0
18/03:00pm 17.7 - - - - SSW 56 69 30 37 1009.2 1009.1 0.0
18/02:30pm 17.5 - - - - SSW 46 57 25 31 1009.0 1008.9 0.0
18/02:01pm 17.8 - - - - SW 46 65 25 35 1009.0 1008.9 0.0
18/02:00pm 17.6 - - - - SW 46 67 25 36 1009.1 1009.0 0.0
18/01:56pm 17.7 - - - - SW 50 67 27 36 1009.1 1009.0 0.0
18/01:35pm 17.6 - - - - SW 46 70 25 38 1008.5 1008.4 0.0
18/01:30pm 17.3 - - - - SW 37 59 20 32 1008.7 1008.6 0.0
18/01:16pm 17.3 - - - - SW 32 59 17 32 1008.6 1008.5 0.0
18/01:00pm 16.9 - - - - SW 46 61 25 33 1008.7 1008.6 0.0
18/12:30pm 16.7 - - - - SW 46 72 25 39 1007.7 1007.6 0.0
18/12:00pm 17.4 - - - - SW 50 72 27 39 1007.2 1007.1 0.0
18/11:42am 16.6 - - - - SSW 52 72 28 39 1007.1 1007.0 0.0
18/11:30am 17.1 - - - - SW 48 67 26 36 1007.3 1007.2 0.0
18/11:22am 16.9 - - - - SW 46 67 25 36 1006.9 1006.8 0.0
18/11:00am 15.8 - - - - SW 50 67 27 36 1006.5 1006.4 0.0
18/10:48am 16.1 - - - - SW 48 72 26 39 1006.1 1006.0 0.0
18/10:30am 16.0 - - - - SW 54 72 29 39 1005.7 1005.6 0.0
18/10:01am 16.0 - - - - SW 56 74 30 40 1005.3 1005.2 0.0
18/10:00am 16.1 - - - - SW 56 72 30 39 1005.4 1005.3 0.0
18/09:30am 15.4 - - - - SW 52 67 28 36 1004.9 1004.8 0.0
18/09:00am 15.4 - - - - SW 44 56 24 30 1004.6 1004.5 0.0
18/08:57am 15.6 - - - - SW 46 54 25 29 1004.4 1004.3 0.0
18/08:30am 14.8 - - - - SW 28 35 15 19 1004.4 1004.3 0.0
18/08:00am 14.9 - - - - WSW 39 48 21 26 1003.7 1003.6 0.0
18/07:30am 14.4 - - - - WSW 32 44 17 24 1003.6 1003.5 0.0
18/07:00am 14.4 - - - - WSW 33 46 18 25 1003.0 1002.9 0.0
18/06:30am 14.4 - - - - WSW 32 39 17 21 1002.8 1002.7 0.0
18/06:19am 14.5 - - - - WSW 28 50 15 27 1002.6 1002.5 0.0
18/06:00am 14.2 - - - - WSW 22 37 12 20 1002.4 1002.3 0.0
18/05:39am 14.5 - - - - W 32 50 17 27 1001.6 1001.5 0.0
18/05:30am 14.5 - - - - W 33 50 18 27 1001.4 1001.3 0.0
18/05:26am 14.6 - - - - W 28 44 15 24 1001.4 1001.3 0.0
18/05:00am 14.9 - - - - NW 9 15 5 8 1001.1 1001.0 0.0
18/04:30am 14.9 - - - - WNW 7 17 4 9 1001.1 1001.0 0.0
18/04:00am 14.9 - - - - W 15 28 8 15 1000.5 1000.4 0.0
18/03:30am 15.4 - - - - W 24 39 13 21 1001.1 1001.0 0.0
18/03:00am 16.4 - - - - WSW 26 35 14 19 1000.8 1000.7 0.0
18/02:30am 16.9 - - - - WSW 19 30 10 16 1000.6 1000.5 0.0
18/02:00am 17.2 - - - - W 9 15 5 8 1000.6 1000.5 0.0
18/01:30am 17.1 - - - - WSW 11 15 6 8 1000.7 1000.6 0.0
18/01:00am 17.2 - - - - N 4 7 2 4 1000.9 1000.8 0.0
18/12:30am 16.8 - - - - NNW 9 13 5 7 1001.3 1001.2 0.0
18/12:00am 16.5 - - - - WNW 6 7 3 4 1001.5 1001.4 0.0
 
Date/Time
EDT
Temp
°C
App
Temp
°C
Dew
Point
°C
Rel
Hum
%
Delta-T
°C
Wind Press
QNH
hPa
Press
MSL
hPa
Rain since
9am
mm
Dir  Spd
km/h
Gust
km/h
Spd
kts
Gust
kts
17/11:30pm 16.8 - - - - NW 11 13 6 7 1002.0 1001.9 0.0
17/11:00pm 16.6 - - - - NNE 7 11 4 6 1001.8 1001.7 0.0
17/10:30pm 17.1 - - - - NNW 6 6 3 3 1002.1 1002.0 0.0
17/10:00pm 17.2 - - - - NNW 9 13 5 7 1001.6 1001.5 0.0
17/09:30pm 17.2 - - - - NNW 15 20 8 11 1002.1 1002.0 0.0
17/09:00pm 17.3 - - - - NE 9 13 5 7 1002.7 1002.6 0.0
17/08:30pm 17.5 - - - - E 9 13 5 7 1002.4 1002.3 0.0
17/08:00pm 17.4 - - - - E 7 13 4 7 1002.4 1002.3 0.0
17/07:30pm 17.6 - - - - ESE 11 15 6 8 1002.3 1002.2 0.0
17/07:00pm 18.0 - - - - ESE 9 13 5 7 1002.0 1001.9 0.0
17/06:30pm 18.0 - - - - E 9 15 5 8 1002.2 1002.1 0.0
17/06:00pm 17.9 - - - - ESE 15 17 8 9 1002.1 1002.0 0.0
17/05:30pm 18.1 - - - - ESE 19 22 10 12 1002.0 1001.9 0.0
17/05:00pm 18.4 - - - - ESE 17 20 9 11 1002.2 1002.1 0.0
17/04:30pm 18.7 - - - - ESE 19 20 10 11 1002.3 1002.2 0.0
17/04:00pm 18.5 - - - - ESE 19 24 10 13 1002.7 1002.6 0.0
17/03:30pm 19.2 - - - - ESE 15 19 8 10 1002.6 1002.5 0.0
17/03:00pm 19.0 - - - - E 19 24 10 13 1002.6 1002.5 0.0
17/02:30pm 19.1 - - - - E 19 24 10 13 1002.4 1002.3 0.0
17/02:00pm 19.4 - - - - E 22 30 12 16 1002.4 1002.3 0.0
17/01:30pm 19.6 - - - - ESE 22 28 12 15 1002.6 1002.5 0.0
17/01:00pm 19.7 - - - - E 26 32 14 17 1002.8 1002.7 0.0
17/12:30pm 20.1 - - - - ESE 22 26 12 14 1002.9 1002.8 0.0
17/12:00pm 20.6 - - - - ESE 17 20 9 11 1003.1 1003.0 0.0
17/11:30am 19.5 - - - - S 7 9 4 5 1003.6 1003.5 0.0
17/11:00am 19.6 - - - - N 4 7 2 4 1004.0 1003.9 0.0
17/10:30am 19.3 - - - - NNE 4 7 2 4 1004.3 1004.2 0.0
17/10:00am 18.4 - - - - NNE 7 9 4 5 1004.8 1004.7 0.0
17/09:30am 18.4 - - - - ENE 4 4 2 2 1005.4 1005.3 0.0
17/09:00am 17.4 - - - - S 4 6 2 3 1005.5 1005.4 0.0
17/08:30am 17.4 - - - - SW 9 17 5 9 1005.7 1005.6 0.0
17/08:00am 16.5 - - - - W 20 24 11 13 1005.6 1005.5 0.0
17/07:30am 15.9 - - - - W 26 30 14 16 1005.3 1005.2 0.0
17/07:00am 15.4 - - - - W 22 28 12 15 1004.5 1004.4 0.0
17/06:30am 15.1 - - - - WNW 20 26 11 14 1004.5 1004.4 0.0
17/06:00am 14.6 - - - - WNW 15 20 8 11 1004.2 1004.1 0.0
17/05:30am 15.2 - - - - WNW 4 9 2 5 1003.9 1003.8 0.0
17/05:00am 15.2 - - - - N 4 6 2 3 1003.9 1003.8 0.0
17/04:30am 14.7 - - - - W 6 7 3 4 1003.7 1003.6 0.0
17/04:00am 15.5 - - - - SW 9 13 5 7 1003.6 1003.5 0.0
17/03:30am 16.4 - - - - NW 30 33 16 18 1003.1 1003.0 0.0
17/03:00am 16.2 - - - - NW 24 32 13 17 1003.4 1003.3 0.0
17/02:30am 16.4 - - - - NW 26 33 14 18 1003.9 1003.8 0.0
17/02:00am 16.2 - - - - NW 26 32 14 17 1004.1 1004.0 0.0
17/01:30am 16.3 - - - - NW 32 39 17 21 1004.2 1004.1 0.0
17/01:00am 16.4 - - - - WNW 13 24 7 13 1004.9 1004.8 0.0
17/12:30am 15.8 - - - - NNW 9 13 5 7 1005.2 1005.1 0.0
17/12:00am 16.0 - - - - N 17 20 9 11 1005.3 1005.2 0.0
 
Date/Time
EDT
Temp
°C
App
Temp
°C
Dew
Point
°C
Rel
Hum
%
Delta-T
°C
Wind Press
QNH
hPa
Press
MSL
hPa
Rain since
9am
mm
Dir  Spd
km/h
Gust
km/h
Spd
kts
Gust
kts
16/11:30pm 15.9 - - - - NNW 19 20 10 11 1005.3 1005.2 0.0
16/11:00pm 15.6 - - - - NNW 13 15 7 8 1005.7 1005.6 0.0
16/10:30pm 15.5 - - - - NW 11 13 6 7 1005.9 1005.8 0.0
16/10:00pm 16.4 - - - - NW 9 13 5 7 1005.8 1005.7 0.0
16/09:30pm 16.8 - - - - NNW 13 15 7 8 1005.8 1005.7 0.0
16/09:00pm 16.9 - - - - N 13 17 7 9 1005.8 1005.7 0.0
16/08:30pm 17.3 - - - - N 17 19 9 10 1005.7 1005.6 0.0
16/08:00pm 17.6 - - - - N 22 24 12 13 1005.6 1005.5 0.0
16/07:30pm 18.1 - - - - N 24 26 13 14 1005.8 1005.7 0.0
16/07:00pm 18.4 - - - - N 26 30 14 16 1005.8 1005.7 0.0
16/06:30pm 18.8 - - - - N 28 33 15 18 1006.1 1006.0 0.0
16/06:00pm 19.2 - - - - NNE 28 35 15 19 1006.3 1006.2 0.0
16/05:30pm 19.7 - - - - N 30 35 16 19 1006.6 1006.5 0.0
16/05:00pm 20.0 - - - - N 28 33 15 18 1007.0 1006.9 0.0
16/04:30pm 19.9 - - - - NNE 28 32 15 17 1007.3 1007.2 0.0
16/04:00pm 20.6 - - - - NE 17 30 9 16 1007.8 1007.7 0.0
16/03:30pm 20.6 - - - - N 19 24 10 13 1008.0 1007.9 0.0
16/03:00pm 20.4 - - - - SE 13 19 7 10 1008.6 1008.5 0.0
16/02:30pm 19.9 - - - - SE 19 26 10 14 1008.7 1008.6 0.0
16/02:00pm 19.0 - - - - ESE 24 30 13 16 1008.8 1008.7 0.0
16/01:30pm 18.5 - - - - ESE 20 26 11 14 1009.1 1009.0 0.0
16/01:00pm 19.4 - - - - ESE 19 26 10 14 1009.3 1009.2 0.0
16/12:30pm 19.4 - - - - ESE 19 24 10 13 1009.6 1009.5 0.0
16/12:00pm 18.7 - - - - ESE 22 28 12 15 1009.9 1009.8 0.0
16/11:30am 19.2 - - - - NE 7 13 4 7 1010.4 1010.3 0.0
16/11:00am 18.1 - - - - NNE 9 11 5 6 1010.6 1010.5 0.0
16/10:30am 17.6 - - - - N 11 13 6 7 1010.8 1010.7 0.0
16/10:00am 17.1 - - - - NNE 11 13 6 7 1010.8 1010.7 0.0
16/09:30am 16.8 - - - - NNE 11 13 6 7 1011.1 1011.0 0.0

Other Formats:

Comma delimited format used in spreadsheet applications
http://www.bom.gov.au/fwo/IDT60801/IDT60801.95988.axf

JavaScript Object Notation format (JSON) in row-major order
http://www.bom.gov.au/fwo/IDT60801/IDT60801.95988.json